createdAt,value
2023-03-15T00:00:53.668Z,34.63
2023-03-15T00:01:53.697Z,34.57
2023-03-15T00:02:53.781Z,34.63
2023-03-15T00:03:53.797Z,34.60
2023-03-15T00:04:53.786Z,34.58
2023-03-15T00:05:53.826Z,34.57
2023-03-15T00:06:53.850Z,34.60
2023-03-15T00:07:53.872Z,34.62
2023-03-15T00:08:53.908Z,34.61
2023-03-15T00:09:53.950Z,34.63
2023-03-15T00:10:53.954Z,34.61
2023-03-15T00:11:53.991Z,34.61
2023-03-15T00:12:54.053Z,34.58
2023-03-15T00:13:54.094Z,34.57
2023-03-15T00:14:54.174Z,34.58
2023-03-15T00:15:54.259Z,34.55
2023-03-15T00:16:54.242Z,34.52
2023-03-15T00:17:54.306Z,34.58
2023-03-15T00:18:54.367Z,34.60
2023-03-15T00:19:54.411Z,34.51
2023-03-15T00:20:54.480Z,34.51
2023-03-15T00:21:54.536Z,34.55
2023-03-15T00:22:54.594Z,34.53
2023-03-15T00:23:54.630Z,34.50
2023-03-15T00:24:54.692Z,34.47
2023-03-15T00:25:54.731Z,34.54
2023-03-15T00:26:54.725Z,34.51
2023-03-15T00:27:54.757Z,34.51
2023-03-15T00:28:54.776Z,34.55
2023-03-15T00:29:54.837Z,34.50
2023-03-15T00:30:54.907Z,34.47
2023-03-15T00:31:54.892Z,34.49
2023-03-15T00:32:54.957Z,34.50
2023-03-15T00:33:54.949Z,34.51
2023-03-15T00:34:55.004Z,34.46
2023-03-15T00:35:55.060Z,34.50
2023-03-15T00:36:55.107Z,34.45
2023-03-15T00:37:55.153Z,34.43
2023-03-15T00:38:55.227Z,34.37
2023-03-15T00:39:55.294Z,34.45
2023-03-15T00:40:55.321Z,34.46
2023-03-15T00:41:55.359Z,34.51
2023-03-15T00:42:55.413Z,34.42
2023-03-15T00:43:55.553Z,34.46
2023-03-15T00:44:55.523Z,34.40
2023-03-15T00:45:55.576Z,34.44
2023-03-15T00:46:55.686Z,34.40
2023-03-15T00:47:55.689Z,34.41
2023-03-15T00:48:55.761Z,34.41
2023-03-15T00:49:55.803Z,34.37
2023-03-15T00:50:55.856Z,34.40
2023-03-15T00:51:55.927Z,34.36
2023-03-15T00:52:55.982Z,34.38
2023-03-15T00:53:55.997Z,34.40
2023-03-15T00:54:56.071Z,34.40
2023-03-15T00:55:56.115Z,34.35
2023-03-15T00:56:56.140Z,34.35
2023-03-15T00:57:56.218Z,34.35
2023-03-15T00:58:56.277Z,34.38
2023-03-15T00:59:56.370Z,34.38
2023-03-15T01:00:56.344Z,34.36
2023-03-15T01:01:56.420Z,34.32
2023-03-15T01:02:56.450Z,34.35
2023-03-15T01:03:56.514Z,34.35
2023-03-15T01:04:56.544Z,34.30
2023-03-15T01:05:56.602Z,34.30
2023-03-15T01:06:56.661Z,34.32
2023-03-15T01:07:56.726Z,34.33
2023-03-15T01:08:56.787Z,34.32
2023-03-15T01:09:56.825Z,34.31
2023-03-15T01:10:56.875Z,34.29
2023-03-15T01:11:56.902Z,34.32
2023-03-15T01:12:56.952Z,34.27
2023-03-15T01:13:57.017Z,34.27
2023-03-15T01:14:57.055Z,34.28
2023-03-15T01:15:57.130Z,34.25
2023-03-15T01:16:57.172Z,34.25
2023-03-15T01:17:57.232Z,34.27
2023-03-15T01:18:57.291Z,34.20
2023-03-15T01:19:57.337Z,34.23
2023-03-15T01:20:57.401Z,34.25
2023-03-15T01:21:57.442Z,34.21
2023-03-15T01:22:57.511Z,34.23
2023-03-15T01:23:57.552Z,34.23
2023-03-15T01:24:57.617Z,34.18
2023-03-15T01:25:57.668Z,34.14
2023-03-15T01:26:57.728Z,34.14
2023-03-15T01:27:57.798Z,34.14
2023-03-15T01:28:57.850Z,34.13
2023-03-15T01:29:57.901Z,34.15
2023-03-15T01:30:59.841Z,34.14
2023-03-15T01:31:58.017Z,34.14
2023-03-15T01:32:58.134Z,34.14
2023-03-15T01:33:58.134Z,34.11
2023-03-15T01:34:58.205Z,34.11
2023-03-15T01:35:58.287Z,34.10
2023-03-15T01:36:58.312Z,34.10
2023-03-15T01:37:58.367Z,34.11
2023-03-15T01:38:58.426Z,34.11
2023-03-15T01:39:58.518Z,34.06
2023-03-15T01:40:58.548Z,34.09
2023-03-15T01:41:58.598Z,34.02
2023-03-15T01:42:58.651Z,34.04
2023-03-15T01:43:58.705Z,34.08
2023-03-15T01:44:58.775Z,34.06
2023-03-15T01:45:58.831Z,34.08
2023-03-15T01:46:58.933Z,34.07
2023-03-15T01:47:58.907Z,34.05
2023-03-15T01:48:58.913Z,34.04
2023-03-15T01:49:58.958Z,34.01
2023-03-15T01:50:59.005Z,34.04
2023-03-15T01:51:59.071Z,34.00
2023-03-15T01:52:59.125Z,33.98
2023-03-15T01:53:59.169Z,33.96
2023-03-15T01:54:59.228Z,33.99
2023-03-15T01:55:59.278Z,33.97
2023-03-15T01:56:59.334Z,33.99
2023-03-15T01:57:59.391Z,33.92
2023-03-15T01:58:59.441Z,33.92
2023-03-15T01:59:59.507Z,33.94
2023-03-15T02:00:59.617Z,33.94
2023-03-15T02:01:59.641Z,33.91
2023-03-15T02:02:59.678Z,33.86
2023-03-15T02:03:59.713Z,33.92
2023-03-15T02:04:59.731Z,33.90
2023-03-15T02:05:59.747Z,33.90
2023-03-15T02:06:59.800Z,33.88
2023-03-15T02:07:59.830Z,33.87
2023-03-15T02:31:00.623Z,33.60
2023-03-15T02:32:00.655Z,33.58
2023-03-15T02:33:00.686Z,33.58
2023-03-15T02:34:00.694Z,33.58
2023-03-15T02:35:00.736Z,33.56
2023-03-15T02:36:00.779Z,33.55
2023-03-15T02:37:00.824Z,33.55
2023-03-15T02:38:00.864Z,33.58
2023-03-15T02:39:00.902Z,33.51
2023-03-15T02:40:00.927Z,33.54
2023-03-15T02:41:00.929Z,33.50
2023-03-15T02:42:00.956Z,33.56
2023-03-15T02:43:00.978Z,33.51
2023-03-15T02:44:01.018Z,33.55
2023-03-15T02:45:01.207Z,33.54
2023-03-15T02:46:01.143Z,33.54
2023-03-15T02:47:01.180Z,33.50
2023-03-15T02:48:01.193Z,33.55
2023-03-15T02:49:01.251Z,33.54
2023-03-15T02:50:01.315Z,33.50
2023-03-15T02:51:01.331Z,33.49
2023-03-15T02:52:01.346Z,33.54
2023-03-15T02:53:01.338Z,33.44
2023-03-15T02:54:01.352Z,33.49
2023-03-15T02:55:01.350Z,33.47
2023-03-15T02:56:01.357Z,33.44
2023-03-15T02:57:01.398Z,33.44
2023-03-15T02:58:01.443Z,33.42
2023-03-15T02:59:01.483Z,33.40
2023-03-15T03:00:01.564Z,33.40
2023-03-15T03:01:01.621Z,33.44
2023-03-15T03:02:01.688Z,33.36
2023-03-15T03:03:01.708Z,33.43
2023-03-15T03:04:01.764Z,33.40
2023-03-15T03:05:01.820Z,33.38
2023-03-15T03:06:01.896Z,33.42
2023-03-15T03:07:01.924Z,33.36
2023-03-15T03:08:01.989Z,33.40
2023-03-15T03:09:02.019Z,33.36
2023-03-15T03:10:02.093Z,33.35
2023-03-15T03:11:02.140Z,33.35
2023-03-15T03:12:02.184Z,33.34
2023-03-15T03:13:02.243Z,33.32
2023-03-15T03:14:02.296Z,33.35
2023-03-15T03:15:02.354Z,33.35
2023-03-15T03:16:02.411Z,33.32
2023-03-15T03:17:02.540Z,33.32
2023-03-15T03:18:02.535Z,33.36
2023-03-15T03:19:02.564Z,33.29
2023-03-15T03:20:02.620Z,33.36
2023-03-15T03:21:02.673Z,33.32
2023-03-15T03:22:02.727Z,33.32
2023-03-15T03:23:02.853Z,33.32
2023-03-15T03:24:02.838Z,33.31
2023-03-15T03:25:02.870Z,33.30
2023-03-15T03:26:02.934Z,33.31
2023-03-15T03:27:02.987Z,33.24
2023-03-15T03:28:03.014Z,33.25
2023-03-15T03:29:03.034Z,33.25
2023-03-15T03:30:03.090Z,33.27
2023-03-15T03:31:03.134Z,33.25
2023-03-15T03:32:03.182Z,33.24
2023-03-15T03:33:03.260Z,33.24
2023-03-15T03:34:03.267Z,33.18
2023-03-15T03:35:03.340Z,33.18
2023-03-15T03:36:03.411Z,33.17
2023-03-15T03:37:03.442Z,33.17
2023-03-15T03:38:03.489Z,33.19
2023-03-15T03:39:03.559Z,33.17
2023-03-15T03:40:03.616Z,33.17
2023-03-15T03:41:03.665Z,33.16
2023-03-15T03:42:03.731Z,33.17
2023-03-15T03:43:03.780Z,33.18
2023-03-15T03:44:03.829Z,33.10
2023-03-15T03:45:03.872Z,33.18
2023-03-15T03:46:03.983Z,33.13
2023-03-15T03:47:03.983Z,33.11
2023-03-15T03:48:04.046Z,33.08
2023-03-15T03:49:04.095Z,33.10
2023-03-15T03:50:04.166Z,33.07
2023-03-15T03:51:04.219Z,33.08
2023-03-15T03:52:04.275Z,33.07
2023-03-15T03:53:04.341Z,33.10
2023-03-15T03:54:04.411Z,33.09
2023-03-15T03:55:04.434Z,33.09
2023-03-15T03:56:04.488Z,32.99
2023-03-15T03:57:04.550Z,33.00
2023-03-15T03:58:04.625Z,33.04
2023-03-15T03:59:04.668Z,33.00
2023-03-15T04:00:04.763Z,33.03
2023-03-15T04:01:04.819Z,32.99
2023-03-15T04:02:04.836Z,32.97
2023-03-15T04:03:04.924Z,32.95
2023-03-15T04:04:04.947Z,32.96
2023-03-15T04:05:04.992Z,32.98
2023-03-15T04:06:05.040Z,32.97
2023-03-15T04:07:05.092Z,32.98
2023-03-15T04:08:05.154Z,32.90
2023-03-15T04:09:05.214Z,32.98
2023-03-15T04:10:05.254Z,32.92
2023-03-15T04:11:05.291Z,32.91
2023-03-15T04:12:05.410Z,32.95
2023-03-15T04:13:05.410Z,32.93
2023-03-15T04:14:05.449Z,32.94
2023-03-15T04:15:05.495Z,32.90
2023-03-15T04:44:06.805Z,32.55
2023-03-15T04:45:06.858Z,32.55
2023-03-15T04:46:06.891Z,32.55
2023-03-15T04:47:06.979Z,32.52
2023-03-15T04:48:06.968Z,32.50
2023-03-15T04:49:07.012Z,32.44
2023-03-15T04:50:07.052Z,32.44
2023-03-15T04:51:07.096Z,32.40
2023-03-15T04:52:07.155Z,32.36
2023-03-15T04:53:07.195Z,32.41
2023-03-15T04:54:07.222Z,32.35
2023-03-15T04:55:07.264Z,32.33
2023-03-15T04:56:07.302Z,32.35
2023-03-15T04:57:07.352Z,32.30
2023-03-15T04:58:07.372Z,32.32
2023-03-15T04:59:07.428Z,32.25
2023-03-15T05:00:07.454Z,32.29
2023-03-15T05:01:07.539Z,32.26
2023-03-15T05:02:07.598Z,32.25
2023-03-15T05:03:07.586Z,32.24
2023-03-15T05:04:07.616Z,32.22
2023-03-15T05:05:07.654Z,32.22
2023-03-15T05:06:07.695Z,32.24
2023-03-15T05:07:07.736Z,32.21
2023-03-15T05:08:07.780Z,32.21
2023-03-15T05:09:07.819Z,32.20
2023-03-15T05:10:07.855Z,32.21
2023-03-15T05:11:07.885Z,32.17
2023-03-15T05:12:07.927Z,32.18
2023-03-15T05:13:07.996Z,32.13
2023-03-15T05:14:08.017Z,32.15
2023-03-15T05:15:08.093Z,32.17
2023-03-15T05:16:08.087Z,32.14
2023-03-15T05:17:08.129Z,32.14
2023-03-15T05:18:08.167Z,32.13
2023-03-15T05:19:08.206Z,32.15
2023-03-15T05:20:08.251Z,32.15
2023-03-15T05:21:08.280Z,32.14
2023-03-15T05:22:08.364Z,32.13
2023-03-15T05:23:08.362Z,32.13
2023-03-15T05:24:08.405Z,32.17
2023-03-15T05:25:08.434Z,32.10
2023-03-15T05:26:08.475Z,32.08
2023-03-15T06:37:35.481Z,31.01
2023-03-15T06:38:30.787Z,30.98
2023-03-15T06:54:30.685Z,30.37
2023-03-15T06:58:30.684Z,30.35
2023-03-15T07:15:30.652Z,30.13
2023-03-15T07:16:30.670Z,30.07
2023-03-15T07:17:30.685Z,30.02
2023-03-15T07:18:30.726Z,30.04
2023-03-15T07:19:30.753Z,30.22
2023-03-15T07:20:30.815Z,30.37
2023-03-15T07:21:30.805Z,30.40
2023-03-15T07:22:30.837Z,30.38
2023-03-15T07:23:30.851Z,30.46
2023-03-15T07:24:30.881Z,30.58
2023-03-15T07:25:30.901Z,27.96
2023-03-15T07:26:30.952Z,27.16
2023-03-15T07:27:30.976Z,27.99
2023-03-15T07:28:31.704Z,29.40
2023-03-15T07:29:31.048Z,30.35
2023-03-15T07:30:31.079Z,30.72
2023-03-15T07:31:32.126Z,31.18
2023-03-15T07:32:31.355Z,31.32
2023-03-15T07:33:32.204Z,31.63
2023-03-15T07:34:31.311Z,31.98
2023-03-15T07:35:31.365Z,32.31
2023-03-15T07:36:31.393Z,32.39
2023-03-15T07:37:32.214Z,32.65
2023-03-15T07:38:31.469Z,32.50
2023-03-15T07:39:31.444Z,32.84
2023-03-15T07:40:31.464Z,33.38
2023-03-15T07:41:31.495Z,33.31
2023-03-15T07:42:31.537Z,33.61
2023-03-15T07:43:32.135Z,33.74
2023-03-15T07:44:31.542Z,33.78
2023-03-15T07:45:31.552Z,33.85
2023-03-15T07:46:31.607Z,33.89
2023-03-15T07:47:31.606Z,34.03
2023-03-15T07:48:31.642Z,33.98
2023-03-15T07:49:31.669Z,34.33
2023-03-15T07:50:31.668Z,34.36
2023-03-15T07:51:31.697Z,34.31
2023-03-15T07:52:31.735Z,34.45
2023-03-15T07:53:31.736Z,34.74
2023-03-15T07:54:31.834Z,35.04
2023-03-15T07:55:31.896Z,34.99
2023-03-15T07:56:31.989Z,35.18
2023-03-15T07:57:32.077Z,35.39
2023-03-15T07:58:32.163Z,35.44
2023-03-15T07:59:32.248Z,35.52
2023-03-15T08:00:32.346Z,35.58
2023-03-15T08:01:32.475Z,35.81
2023-03-15T08:02:32.512Z,35.88
2023-03-15T08:03:32.584Z,35.92
2023-03-15T08:04:34.985Z,36.02
2023-03-15T08:05:32.681Z,36.16
2023-03-15T08:06:32.704Z,36.18
2023-03-15T08:07:32.699Z,36.47
2023-03-15T08:08:32.729Z,36.62
2023-03-15T08:09:32.744Z,36.65
2023-03-15T08:10:32.763Z,36.71
2023-03-15T08:11:32.781Z,36.85
2023-03-15T08:12:32.798Z,36.95
2023-03-15T08:13:32.808Z,37.03
2023-03-15T08:14:32.808Z,37.08
2023-03-15T08:15:32.810Z,37.08
2023-03-15T08:16:32.852Z,37.28
2023-03-15T08:17:32.831Z,37.51
2023-03-15T08:18:32.850Z,37.77
2023-03-15T08:19:32.864Z,37.77
2023-03-15T08:20:32.884Z,37.76
2023-03-15T08:21:32.906Z,37.66
2023-03-15T08:22:32.909Z,37.58
2023-03-15T08:23:32.951Z,37.50
2023-03-15T08:24:32.946Z,37.38
2023-03-15T08:25:32.969Z,37.28
2023-03-15T08:26:32.981Z,37.24
2023-03-15T08:27:33.002Z,37.17
2023-03-15T08:28:33.026Z,37.14
2023-03-15T08:29:33.027Z,37.12
2023-03-15T08:30:33.714Z,37.05
2023-03-15T08:31:33.139Z,37.01
2023-03-15T08:32:33.122Z,36.96
2023-03-15T08:33:33.111Z,36.95
2023-03-15T08:34:33.119Z,36.74
2023-03-15T08:35:33.288Z,36.75
2023-03-15T08:36:33.167Z,36.74
2023-03-15T08:37:33.166Z,36.70
2023-03-15T08:38:33.186Z,36.68
2023-03-15T08:39:33.192Z,36.66
2023-03-15T08:40:33.232Z,36.65
2023-03-15T08:41:33.239Z,36.62
2023-03-15T08:42:33.264Z,36.61
2023-03-15T08:43:33.269Z,36.53
2023-03-15T08:44:35.799Z,36.45
2023-03-15T08:45:51.121Z,36.42
2023-03-15T08:46:34.338Z,36.35
2023-03-15T08:47:33.333Z,36.32
2023-03-15T08:48:33.340Z,36.31
2023-03-15T08:49:33.329Z,36.27
2023-03-15T08:50:33.346Z,36.27
2023-03-15T08:51:33.362Z,36.25
2023-03-15T08:52:33.387Z,36.24
2023-03-15T08:53:33.416Z,36.19
2023-03-15T08:54:33.406Z,36.10
2023-03-15T08:55:33.417Z,36.14
2023-03-15T08:56:33.430Z,36.11
2023-03-15T08:57:33.445Z,36.05
2023-03-15T08:58:33.457Z,36.00
2023-03-15T08:59:33.470Z,35.92
2023-03-15T09:00:34.152Z,35.93
2023-03-15T09:01:33.494Z,35.93
2023-03-15T09:02:33.585Z,35.87
2023-03-15T09:03:33.531Z,35.84
2023-03-15T09:04:33.599Z,35.86
2023-03-15T09:05:33.594Z,35.82
2023-03-15T09:06:33.610Z,35.77
2023-03-15T09:07:33.623Z,35.74
2023-03-15T09:08:33.644Z,35.71
2023-03-15T11:22:40.769Z,31.84
2023-03-15T11:31:40.676Z,32.85
2023-03-15T11:32:40.677Z,32.95
2023-03-15T11:33:40.702Z,33.06
2023-03-15T11:34:40.738Z,33.13
2023-03-15T11:35:40.797Z,33.31
2023-03-15T11:36:40.799Z,33.33
2023-03-15T11:37:40.843Z,33.55
2023-03-15T11:38:40.877Z,33.65
2023-03-15T11:39:40.913Z,33.62
2023-03-15T11:40:40.967Z,33.88
2023-03-15T11:41:41.011Z,27.31
2023-03-15T11:42:41.029Z,28.40
2023-03-15T11:43:41.086Z,27.66
2023-03-15T11:44:41.144Z,29.44
2023-03-15T11:45:41.212Z,30.35
2023-03-15T11:46:41.269Z,30.66
2023-03-15T11:47:41.339Z,30.49
2023-03-15T11:48:41.380Z,30.64
2023-03-15T11:49:41.435Z,30.72
2023-03-15T11:50:41.481Z,30.84
2023-03-15T11:51:41.540Z,30.90
2023-03-15T11:52:41.571Z,31.12
2023-03-15T11:53:41.645Z,31.25
2023-03-15T11:54:41.662Z,31.51
2023-03-15T11:55:41.698Z,31.53
2023-03-15T11:56:41.732Z,31.68
2023-03-15T12:09:42.314Z,32.69
2023-03-15T12:10:42.371Z,32.75
2023-03-15T12:11:42.397Z,32.75
2023-03-15T12:12:42.448Z,32.68
2023-03-15T12:13:42.508Z,32.54
2023-03-15T12:14:42.542Z,32.47
2023-03-15T12:15:42.611Z,32.36
2023-03-15T12:16:42.780Z,32.32
2023-03-15T12:17:42.696Z,32.33
2023-03-15T12:18:42.742Z,32.29
2023-03-15T12:19:42.787Z,32.25
2023-03-15T12:20:42.857Z,32.25
2023-03-15T14:29:50.641Z,28.46
2023-03-15T14:30:50.649Z,28.45
2023-03-15T14:31:50.756Z,28.40
2023-03-15T14:32:50.688Z,28.36
2023-03-15T14:33:50.667Z,28.37
2023-03-15T14:34:50.697Z,28.38
2023-03-15T14:35:50.730Z,28.37
2023-03-15T14:36:50.710Z,28.34
2023-03-15T14:37:50.730Z,28.30
2023-03-15T14:38:50.741Z,28.31
2023-03-15T14:39:50.794Z,28.31
2023-03-15T14:40:50.779Z,28.32
2023-03-15T14:41:50.805Z,28.32
2023-03-15T14:42:50.850Z,28.31
2023-03-15T14:43:50.834Z,28.23
2023-03-15T14:44:50.848Z,28.24
2023-03-15T14:45:50.916Z,28.23
2023-03-15T14:46:50.916Z,28.21
2023-03-15T14:47:57.254Z,28.20
2023-03-15T14:48:51.916Z,28.21
2023-03-15T14:49:50.924Z,28.14
2023-03-15T14:50:50.942Z,28.21
2023-03-15T14:51:50.945Z,28.15
2023-03-15T14:52:50.964Z,28.18
2023-03-15T14:53:50.981Z,28.14
2023-03-15T14:54:50.990Z,28.11
2023-03-15T14:55:51.008Z,28.14
2023-03-15T14:56:51.029Z,28.11
2023-03-15T14:57:51.053Z,28.11
2023-03-15T14:58:51.077Z,28.07
2023-03-15T14:59:51.093Z,28.07
2023-03-15T15:00:51.153Z,28.14
2023-03-15T15:01:51.192Z,28.10
2023-03-15T15:02:51.138Z,28.08
2023-03-15T15:03:51.161Z,28.08
2023-03-15T15:04:51.177Z,28.07
2023-03-15T15:05:51.208Z,27.98
2023-03-15T15:06:51.226Z,28.01
2023-03-15T15:07:51.240Z,28.03
2023-03-15T15:08:51.257Z,27.96
2023-03-15T15:09:51.309Z,27.94
2023-03-15T15:10:51.294Z,28.00
2023-03-15T15:11:51.336Z,27.98
2023-03-15T15:13:04.798Z,28.01
2023-03-15T15:13:52.860Z,27.94
2023-03-15T15:14:51.352Z,27.99
2023-03-15T15:15:56.009Z,27.94
2023-03-15T15:16:52.477Z,27.94
2023-03-15T15:17:51.388Z,27.93
2023-03-15T15:18:51.415Z,27.93
2023-03-15T15:19:51.422Z,27.98
2023-03-15T15:20:51.450Z,27.97
2023-03-15T15:21:51.472Z,27.95
2023-03-15T15:22:51.487Z,27.92
2023-03-15T15:23:58.519Z,27.92
2023-03-15T15:24:52.509Z,27.91
2023-03-15T15:25:51.527Z,27.91
2023-03-15T15:26:51.556Z,27.92
2023-03-15T15:27:51.558Z,27.91
2023-03-15T15:42:51.871Z,27.88
2023-03-15T15:43:51.887Z,27.93
2023-03-15T15:44:51.915Z,27.92
2023-03-15T15:45:51.970Z,27.89
2023-03-15T15:46:51.958Z,27.90
2023-03-15T15:47:51.949Z,27.96
2023-03-15T15:48:51.982Z,27.96
2023-03-15T15:49:51.978Z,27.93
2023-03-15T15:50:51.998Z,27.89
2023-03-15T15:51:52.021Z,27.97
2023-03-15T15:52:52.047Z,27.97
2023-03-15T15:53:52.069Z,28.03
2023-03-15T15:54:52.095Z,27.98
2023-03-15T15:55:52.130Z,27.97
2023-03-15T15:56:52.132Z,27.97
2023-03-15T15:57:52.177Z,27.96
2023-03-15T15:58:52.170Z,27.97
2023-03-15T15:59:52.211Z,27.98
2023-03-15T16:00:52.209Z,27.90
2023-03-15T16:02:00.607Z,27.98
2023-03-15T16:02:53.282Z,27.93
2023-03-15T16:03:52.288Z,27.93
2023-03-15T16:04:52.286Z,27.94
2023-03-15T16:05:52.316Z,27.97
2023-03-15T16:06:52.454Z,27.93
2023-03-15T16:07:52.364Z,27.94
2023-03-15T16:08:52.371Z,27.97
2023-03-15T16:09:54.047Z,27.91
2023-03-15T16:10:52.427Z,27.98
2023-03-15T16:11:52.433Z,27.94
2023-03-15T16:12:52.461Z,27.91
2023-03-15T16:13:52.498Z,27.94
2023-03-15T16:14:52.509Z,27.99
2023-03-15T16:15:52.622Z,27.94
2023-03-15T16:16:52.532Z,27.94
2023-03-15T16:17:52.561Z,27.94
2023-03-15T16:18:52.586Z,27.91
2023-03-15T16:19:52.598Z,27.97
2023-03-15T16:20:52.632Z,27.91
2023-03-15T16:21:52.644Z,27.95
2023-03-15T16:22:52.697Z,27.92
2023-03-15T16:23:52.733Z,27.97
2023-03-15T16:24:52.705Z,27.98
2023-03-15T16:25:52.717Z,27.95
2023-03-15T16:26:52.746Z,27.94
2023-03-15T16:27:52.758Z,27.99
2023-03-15T16:28:52.778Z,27.98
2023-03-15T16:29:52.806Z,28.01
2023-03-15T16:30:52.850Z,27.99
2023-03-15T16:31:52.832Z,27.98
2023-03-15T16:32:52.874Z,28.01
2023-03-15T16:33:52.870Z,28.01
2023-03-15T16:34:52.865Z,27.97
2023-03-15T16:35:52.979Z,28.02
2023-03-15T16:36:52.907Z,28.00
2023-03-15T16:37:52.954Z,28.00
2023-03-15T16:38:52.953Z,28.00
2023-03-15T16:39:52.978Z,28.04
2023-03-15T16:40:53.100Z,28.07
2023-03-15T16:41:53.017Z,28.06
2023-03-15T16:42:53.040Z,28.03
2023-03-15T16:43:53.053Z,28.06
2023-03-15T16:44:53.071Z,28.10
2023-03-15T16:45:53.091Z,28.06
2023-03-15T16:46:53.133Z,28.10
2023-03-15T16:47:53.110Z,28.03
2023-03-15T16:48:53.122Z,28.07
2023-03-15T16:49:53.150Z,28.07
2023-03-15T16:50:53.159Z,28.07
2023-03-15T16:51:53.167Z,28.09
2023-03-15T16:52:53.184Z,28.09
2023-03-15T16:53:59.740Z,28.07
2023-03-15T16:54:54.223Z,28.09
2023-03-15T16:55:53.236Z,28.08
2023-03-15T16:56:53.264Z,28.06
2023-03-15T16:57:53.288Z,28.09
2023-03-15T16:58:53.318Z,28.09
2023-03-15T16:59:53.332Z,28.08
2023-03-15T17:00:53.360Z,28.11
2023-03-15T17:01:53.521Z,28.08
2023-03-15T17:02:53.504Z,28.14
2023-03-15T17:03:53.509Z,28.12
2023-03-15T17:04:53.455Z,28.12
2023-03-15T17:05:53.487Z,28.15
2023-03-15T17:06:53.512Z,28.12
2023-03-15T17:07:53.523Z,28.13
2023-03-15T17:08:53.547Z,28.09
2023-03-15T17:09:53.566Z,28.18
2023-03-15T17:10:53.589Z,28.15
2023-03-15T17:11:53.605Z,28.19
2023-03-15T17:12:53.634Z,28.15
2023-03-15T17:13:53.647Z,28.18
2023-03-15T17:14:53.656Z,28.16
2023-03-15T17:15:53.743Z,28.17
2023-03-15T17:16:53.673Z,28.18
2023-03-15T17:17:53.686Z,28.18
2023-03-15T17:18:53.708Z,28.11
2023-03-15T17:19:53.762Z,28.18
2023-03-15T17:20:53.771Z,28.17
2023-03-15T17:21:53.807Z,28.20
2023-03-15T17:22:53.849Z,28.23
2023-03-15T17:23:53.911Z,28.17
2023-03-15T17:24:53.937Z,28.19
2023-03-15T17:25:53.981Z,28.25
2023-03-15T17:26:54.013Z,28.22
2023-03-15T17:27:54.054Z,28.25
2023-03-15T17:28:54.093Z,28.23
2023-03-15T17:29:54.136Z,28.22
2023-03-15T17:30:59.703Z,28.26
2023-03-15T17:31:55.247Z,28.23
2023-03-15T17:32:54.279Z,28.29
2023-03-15T17:33:54.233Z,28.25
2023-03-15T17:34:54.257Z,28.28
2023-03-15T17:35:54.308Z,28.26
2023-03-15T17:36:54.284Z,28.27
2023-03-15T17:37:54.328Z,28.29
2023-03-15T17:38:54.376Z,28.26
2023-03-15T17:39:54.351Z,28.30
2023-03-15T17:40:54.379Z,28.31
2023-03-15T17:41:54.414Z,28.27
2023-03-15T17:42:54.445Z,28.27
2023-03-15T17:43:54.457Z,28.30
2023-03-15T17:44:54.484Z,28.27
2023-03-15T17:45:54.507Z,28.30
2023-03-15T17:46:54.565Z,28.37
2023-03-15T17:47:54.564Z,28.33
2023-03-15T17:48:54.580Z,28.29
2023-03-15T17:49:54.622Z,28.31
2023-03-15T17:50:54.646Z,28.30
2023-03-15T17:51:54.655Z,28.33
2023-03-15T17:52:54.682Z,28.31
2023-03-15T17:53:54.688Z,28.31
2023-03-15T17:54:54.713Z,28.33
2023-03-15T17:55:54.727Z,28.39
2023-03-15T17:56:54.734Z,28.34
2023-03-15T17:57:55.750Z,28.31
2023-03-15T17:58:54.788Z,28.33
2023-03-15T17:59:54.831Z,28.36
2023-03-15T18:00:55.040Z,28.34
2023-03-15T18:01:54.916Z,28.31
2023-03-15T18:02:56.320Z,28.36
2023-03-15T18:03:55.004Z,28.34
2023-03-15T18:04:55.034Z,28.33
2023-03-15T18:05:55.074Z,28.37
2023-03-15T18:06:55.122Z,28.37
2023-03-15T18:07:58.526Z,28.31
2023-03-15T18:08:55.181Z,28.35
2023-03-15T18:09:55.203Z,28.34
2023-03-15T18:10:55.211Z,28.33
2023-03-15T18:11:55.245Z,28.35
2023-03-15T18:12:55.251Z,28.37
2023-03-15T18:13:55.277Z,28.38
2023-03-15T18:14:55.289Z,28.31
2023-03-15T18:15:55.314Z,28.34
2023-03-15T18:16:55.379Z,28.41
2023-03-15T18:17:55.321Z,28.36
2023-03-15T18:18:55.341Z,28.34
2023-03-15T18:19:55.359Z,28.38
2023-03-15T18:20:55.365Z,28.36
2023-03-15T18:21:55.390Z,28.35
2023-03-15T18:22:55.421Z,28.35
2023-03-15T18:23:55.440Z,28.34
2023-03-15T18:24:55.441Z,28.36
2023-03-15T18:25:55.454Z,28.38
2023-03-15T18:26:55.483Z,28.35
2023-03-15T18:27:55.566Z,28.30
2023-03-15T18:28:55.521Z,28.40
2023-03-15T18:29:55.579Z,28.36
2023-03-15T18:30:55.757Z,28.35
2023-03-15T18:31:55.602Z,28.34
2023-03-15T18:32:55.759Z,28.36
2023-03-15T18:33:55.595Z,28.35
2023-03-15T18:34:55.608Z,28.36
2023-03-15T18:35:55.682Z,28.35
2023-03-15T18:36:55.644Z,28.36
2023-03-15T18:37:55.649Z,28.37
2023-03-15T18:38:55.737Z,28.35
2023-03-15T18:39:55.776Z,28.34
2023-03-15T18:40:55.705Z,28.31
2023-03-15T20:55:00.634Z,28.44
2023-03-15T20:56:00.683Z,28.46
2023-03-15T20:57:00.719Z,28.48
2023-03-15T20:58:00.781Z,28.46
2023-03-15T20:59:00.842Z,28.48
2023-03-15T21:00:01.099Z,28.46
2023-03-15T21:01:00.948Z,28.44
2023-03-15T21:02:01.015Z,28.43
2023-03-15T21:03:01.018Z,28.43
2023-03-15T21:04:01.071Z,28.43
2023-03-15T21:05:01.095Z,28.47
2023-03-15T21:06:01.163Z,28.46
2023-03-15T21:07:01.198Z,28.41
2023-03-15T21:08:01.247Z,28.44
2023-03-15T21:09:01.335Z,28.48
2023-03-15T21:10:01.364Z,28.41
2023-03-15T21:11:01.399Z,28.47
2023-03-15T21:12:01.480Z,28.47
2023-03-15T21:13:01.490Z,28.41
2023-03-15T21:14:01.559Z,28.44
2023-03-15T21:15:01.622Z,28.44
2023-03-15T21:16:01.704Z,28.40
2023-03-15T21:17:01.725Z,28.41
2023-03-15T21:18:01.766Z,28.45
2023-03-15T21:19:01.816Z,28.41
2023-03-15T21:20:01.876Z,28.45
2023-03-15T22:39:05.742Z,28.19
2023-03-15T22:40:05.791Z,28.24
2023-03-15T22:41:05.845Z,28.20
2023-03-15T22:42:05.902Z,28.23
2023-03-15T22:43:05.960Z,28.24
2023-03-15T22:44:06.009Z,28.23
2023-03-15T22:45:06.047Z,28.27
2023-03-15T22:46:06.151Z,28.26
2023-03-15T22:47:06.148Z,28.26
2023-03-15T22:48:06.202Z,28.20
2023-03-15T22:49:06.269Z,28.21
2023-03-15T22:50:06.337Z,28.23
2023-03-15T22:51:06.377Z,28.19
2023-03-15T22:52:06.425Z,28.16
2023-03-15T22:53:06.478Z,28.19
2023-03-15T22:54:06.539Z,28.19
2023-03-15T22:55:06.587Z,28.16
2023-03-15T22:56:06.625Z,28.18
2023-03-15T22:57:06.685Z,28.18
2023-03-15T22:58:06.754Z,28.15
2023-03-15T22:59:06.803Z,28.12
